Terminal Aerodrome Forecast
Issued by NWS

Home | Current Version | Previous Version | Text Only | Print | Product List | Glossary Off
Versions: 1 2 3 4 5 6 7 8 9 10 11 12 13 14

000
FTUS43 KFGF 191400 AAA
TAFBJI
TAF AMD
KBJI 191417Z 1914/2012 16006KT 4SM -SN OVC025
      TEMPO 1914/1917 1SM -SN OVC015
     FM191700 16006KT P6SM OVC015
     FM192100 16006KT P6SM OVC006=

USA.gov is the U.S. government's official web portal to all federal, state and local government web resources and services.